Accueil
METAR-TAF:

METAR-TAF

Aéroports :

Sabadell, Espagne

latitude: 41-31N, longitude: 002-06E, altitude: 250 m

Observation

Le bulletin a été fait il y a 43 minutes, à 15:30 UTC
Vent 9 kt de sud-est, variant entre est et sud/sud-est
Température 15°C
Humidité 36%
Pression 1015 hPa
Visibilité 10 km ou plus
Quelques nuages à une hauteur de 6000 ft

METAR: LELL 281530Z 13009KT 100V160 9999 FEW060 15/00 Q1015

Heure: 17:13 (16:13 UTC)

Prévision

Le bulletin a été fait il y a 2 heures et 13 minutes, à 14:00 UTC
Prévision valable du 28 à 15 UTC au 29 à 15 UTC
Vent 7 kt de ouest
Visibilité 10 km ou plus
Quelques nuages à une hauteur de 5000 ft
Temporairement
du 28 à 15 UTC au 28 à 18 UTC
Vent 9 kt de sud
Temporairement
du 29 à 13 UTC au 29 à 15 UTC
Vent 9 kt de sud/sud-ouest

TAF: LELL 281400Z 2815/2915 27007KT 9999 FEW050 TX20/2913Z TN03/2906Z TEMPO 2815/2818 18009KT TEMPO 2913/2915 20009KT

Observations et prévisions météorologiques de plus de 4000 aéroports (messages METAR et TAF).

Les stations disponibles sont représentées par des disques jaunes et rouges sur la carte.

Passer la souris dessus pour voir le nom de la station.

Cliquer dessus pour voir les observations et prévisions météorologiques.

Pour changer de carte: cliquez sur les boutons verts avec une croix noire pour zoomer, sur le bouton vert avec un tiret pour effectuer un zoom arrière, ou sur les flèches vertes pour les cartes adjacentes.


METAR-TAF: